Flight Track Log - Related Links

Times and Time Zones

All times are in EDT time to prevent confusion due to time zone crossing. See the AMF707 flight status page for this flight to view local times or setup timezone preferences in your user account.

Time Position Orientation Groundspeed Altitude Reporting Facility
EDT Latitude Longitude Course Direction KTS MPH feet Rate Location/Type
Mon 11:59:43 AM 38.6667 -90.6833 322° Northwest 167 192 1,500  Level Gateway (St. Louis) TRACON
Mon 12:00:43 PM 38.7000 -90.7167 322° Northwest 211 243 3,000 1,453 Climbing Gateway (St. Louis) TRACON
Mon 12:01:18 PM 38.7297 -90.7208 354° North 193 222 3,800 1,361 Climbing Kansas City Center
Mon 12:02:20 PM 38.7775 -90.6953 23° Northeast 211 243 5,200 1,210 Climbing Kansas City Center
Mon 12:03:22 PM 38.8233 -90.6503 37° Northeast 207 238 6,300 919 Climbing Kansas City Center
Mon 12:04:24 PM 38.8808 -90.5872 40° Northeast 221 254 7,100 387 Climbing Kansas City Center
Mon 12:05:26 PM 38.9386 -90.5311 37° Northeast 250 288 7,100 194 Level Kansas City Center
Mon 12:06:28 PM 38.9900 -90.4561 49° Northeast 273 314 7,500 823 Climbing Kansas City Center
Mon 12:07:30 PM 39.0297 -90.3850 54° Northeast 252 290 8,800 1,113 Climbing Kansas City Center
Mon 12:08:32 PM 39.0700 -90.3200 51° Northeast 238 274 9,800 1,016 Climbing Kansas City Center
Mon 12:09:34 PM 39.1050 -90.2506 57° Northeast 232 267 10,900 968 Climbing Kansas City Center
Mon 12:10:36 PM 39.1428 -90.1831 54° Northeast 232 267 11,800 1,440 Climbing Kansas City Center
Mon 12:11:39 PM 39.1811 -90.1069 57° Northeast 215 247 13,900 1,584 Climbing Kansas City Center
Mon 12:12:41 PM 39.2067 -90.0500 60° Northeast 191 220 15,100 1,016 Climbing Kansas City Center
Mon 12:13:43 PM 39.2158 -89.9853 80° East 188 216 16,000 823 Climbing Kansas City Center
Mon 12:14:45 PM 39.2258 -89.9194 79° East 189 217 16,800 774 Climbing Kansas City Center
Mon 12:15:47 PM 39.2333 -89.8494 82° East 193 222 17,600 677 Climbing Kansas City Center
Mon 12:16:49 PM 39.2436 -89.7806 79° East 197 227 18,200 677 Climbing Kansas City Center
Mon 12:17:51 PM 39.2586 -89.6967 77° East 198 228 19,000 387 Climbing Kansas City Center
Mon 12:18:53 PM 39.2694 -89.6200 80° East 210 242 19,000 48 Level Kansas City Center
Mon 12:19:55 PM 39.2825 -89.5328 79° East 237 273 19,100  Climbing Kansas City Center
Mon 12:20:57 PM 39.2992 -89.4428 77° East 253 291 19,000 -48 Descending Kansas City Center
Mon 12:21:59 PM 39.3158 -89.3503 77° East 261 300 19,000  Level Kansas City Center
Mon 12:23:01 PM 39.3342 -89.2575 76° East 265 305 19,000  Level Kansas City Center
Mon 12:24:03 PM 39.3569 -89.1453 75° East 269 310 19,000  Level Kansas City Center
Mon 12:25:05 PM 39.3867 -89.0572 66° East 268 308 19,000  Level Kansas City Center
Mon 12:26:07 PM 39.4119 -88.9694 70° East 263 303 19,000  Level Kansas City Center
Mon 12:27:09 PM 39.4367 -88.8847 69° East 265 305 19,000  Level Kansas City Center
Mon 12:28:11 PM 39.4625 -88.7944 70° East 267 307 19,000  Level Kansas City Center
Mon 12:29:13 PM 39.4925 -88.6892 70° East 263 303 19,000  Level Kansas City Center
Mon 12:30:15 PM 39.5181 -88.6000 70° East 263 303 19,000  Level Kansas City Center
Mon 12:31:17 PM 39.5417 -88.5139 70° East 267 307 19,000  Level Kansas City Center
Mon 12:32:19 PM 39.5717 -88.4075 70° East 264 304 19,000  Level Kansas City Center
Mon 12:33:21 PM 39.5958 -88.3178 71° East 263 303 19,000  Level Kansas City Center
Mon 12:34:23 PM 39.6222 -88.2264 69° East 265 305 19,000  Level Kansas City Center
Mon 12:35:25 PM 39.6494 -88.1375 68° East 264 304 19,000  Level Kansas City Center
Mon 12:36:19 PM 39.6742 -88.0569 68° East 266 306 19,000  Level Indianapolis Center
Mon 12:37:21 PM 39.7044 -87.9703 66° East 265 305 19,000  Level Indianapolis Center
Mon 12:38:23 PM 39.7281 -87.8817 71° East 263 303 19,000  Level Indianapolis Center
Mon 12:39:25 PM 39.7553 -87.7931 68° East 263 303 19,000  Level Indianapolis Center
Mon 12:40:27 PM 39.7872 -87.6875 68° East 262 302 19,000  Level Indianapolis Center
Mon 12:41:29 PM 39.8142 -87.5994 68° East 263 303 19,000 48 Level Indianapolis Center
Mon 12:42:31 PM 39.8428 -87.5150 66° East 258 297 19,100 194 Climbing Indianapolis Center
Mon 12:43:33 PM 39.8719 -87.4361 64° Northeast 248 285 19,400 242 Climbing Indianapolis Center
Mon 12:44:35 PM 39.8983 -87.3603 66° East 236 272 19,600 194 Climbing Indianapolis Center
Mon 12:45:37 PM 39.9219 -87.2825 68° East 233 268 19,800 145 Climbing Indianapolis Center
Mon 12:46:39 PM 39.9461 -87.2047 68° East 232 267 19,900 242 Climbing Indianapolis Center
Mon 12:47:41 PM 39.9739 -87.1056 70° East 242 278 20,300 290 Climbing Indianapolis Center
Mon 12:48:43 PM 39.9986 -87.0267 68° East 239 275 20,500 242 Climbing Indianapolis Center
Mon 12:49:45 PM 40.0247 -86.9475 67° East 238 274 20,800 194 Climbing Indianapolis Center
Mon 12:50:47 PM 40.0500 -86.8653 68° East 241 277 20,900 98 Climbing Indianapolis Center
Mon 12:51:48 PM 40.0750 -86.7839 68° East 242 278 21,000 49 Climbing Indianapolis Center
Mon 12:52:50 PM 40.1011 -86.6983 68° East 249 287 21,000  Level Indianapolis Center
Mon 12:53:52 PM 40.1322 -86.5939 69° East 254 292 21,000  Level Indianapolis Center
Mon 12:54:31 PM 40.1497 -86.5425 66° East 259 298 21,000  Level Chicago Center
Mon 12:55:33 PM 40.1775 -86.4547 67° East 260 299 21,000  Level Chicago Center
Mon 12:56:35 PM 40.2050 -86.3672 68° East 260 299 21,000  Level Chicago Center
Mon 12:57:37 PM 40.2322 -86.2786 68° East 262 302 21,000  Level Chicago Center
Mon 12:58:39 PM 40.2589 -86.1886 69° East 265 305 21,000  Level Chicago Center
Mon 12:59:41 PM 40.2944 -86.0811 67° East 268 308 21,000 48 Level Chicago Center
Mon 01:00:43 PM 40.3239 -85.9906 67° East 271 312 21,100  Climbing Chicago Center
Mon 01:01:45 PM 40.3542 -85.9003 66° East 271 312 21,000 -48 Descending Chicago Center
Mon 01:02:47 PM 40.3850 -85.8114 65° Northeast 271 312 21,000  Level Chicago Center
Mon 01:03:50 PM 40.4169 -85.7219 65° Northeast 272 313 21,000  Level Chicago Center
Mon 01:04:52 PM 40.4467 -85.6333 66° East 269 310 21,000  Level Chicago Center
Mon 01:05:54 PM 40.4792 -85.5225 69° East 274 315 21,000  Level Chicago Center
Mon 01:06:56 PM 40.5050 -85.4319 69° East 269 310 21,000  Level Chicago Center
Mon 01:07:58 PM 40.5319 -85.3400 69° East 270 311 21,000  Level Chicago Center
Mon 01:09:00 PM 40.5575 -85.2469 70° East 272 313 21,000  Level Chicago Center
Mon 01:10:02 PM 40.5842 -85.1553 69° East 271 312 21,000  Level Chicago Center
Mon 01:11:04 PM 40.6094 -85.0636 70° East 268 308 21,000  Level Chicago Center
Mon 01:12:06 PM 40.6331 -84.9500 75° East 270 311 21,000  Level Chicago Center
Mon 01:13:08 PM 40.6553 -84.8561 73° East 268 308 21,000  Level Chicago Center
Mon 01:14:10 PM 40.6789 -84.7647 71° East 265 305 21,000  Level Chicago Center
Mon 01:15:12 PM 40.7017 -84.6731 72° East 264 304 21,000  Level Chicago Center
Mon 01:16:14 PM 40.7239 -84.5800 72° East 267 307 21,000 48 Level Chicago Center
Mon 01:17:17 PM 40.7478 -84.4861 71° East 268 308 21,100  Climbing Chicago Center
Mon 01:18:19 PM 40.7744 -84.3731 73° East 270 311 21,000  Descending Chicago Center
Mon 01:19:21 PM 40.7972 -84.2806 72° East 269 310 21,100 48 Climbing Chicago Center
Mon 01:20:23 PM 40.8217 -84.1881 71° East 267 307 21,100 -48 Level Chicago Center
Mon 01:21:25 PM 40.8447 -84.0972 71° East 265 305 21,000  Descending Chicago Center
Mon 01:22:27 PM 40.8678 -84.0078 71° East 262 302 21,100 56 Climbing Chicago Center
Mon 01:23:12 PM 40.8894 -83.9314 69° East 260 299 21,100  Level Cleveland Center
Mon 01:23:49 PM 40.9011 -83.8719 75° East 262 302 21,100  Level Indianapolis Center
Mon 01:24:50 PM 40.9242 -83.7786 72° East 264 304 21,100  Level Indianapolis Center
Mon 01:25:52 PM 40.9478 -83.6839 72° East 267 307 21,100 -48 Level Indianapolis Center
Mon 01:26:54 PM 40.9719 -83.5903 71° East 265 305 21,000  Descending Indianapolis Center
Mon 01:27:56 PM 40.9950 -83.4861 74° East 280 322 21,100 48 Climbing Indianapolis Center
Mon 01:28:58 PM 41.0250 -83.3711 71° East 280 322 21,100  Level Indianapolis Center
Mon 01:30:00 PM 41.0492 -83.2736 72° East 277 319 21,100  Level Indianapolis Center
Mon 01:31:02 PM 41.0725 -83.1761 72° East 277 319 21,100  Level Indianapolis Center
Mon 01:32:12 PM 41.1056 -83.0633 69° East 279 321 21,100  Level Cleveland Center
Mon 01:33:12 PM 41.1303 -82.9678 71° East 274 315 21,100  Level Cleveland Center
Mon 01:34:12 PM 41.1553 -82.8722 71° East 274 315 21,100  Level Cleveland Center
Mon 01:35:12 PM 41.1822 -82.7792 69° East 269 310 21,100  Level Cleveland Center
Mon 01:36:12 PM 41.2044 -82.6972 70° East 264 304 21,100  Level Cleveland Center
Mon 01:37:12 PM 41.2314 -82.6014 69° East 269 310 21,100  Level Cleveland Center
Mon 01:38:12 PM 41.2539 -82.5056 73° East 264 304 21,100  Level Cleveland Center
Mon 01:39:12 PM 41.2803 -82.4094 70° East 269 310 21,100  Level Cleveland Center
Mon 01:40:12 PM 41.3047 -82.3189 70° East 264 304 21,100  Level Cleveland Center
Mon 01:41:12 PM 41.3292 -82.2256 71° East 264 304 21,100  Level Cleveland Center
Mon 01:42:12 PM 41.3575 -82.1239 70° East 264 304 21,100  Level Cleveland Center
Mon 01:43:12 PM 41.3858 -82.0278 69° East 271 312 21,100  Level Cleveland Center
Mon 01:44:12 PM 41.4078 -81.9369 72° East 260 299 21,100  Level Cleveland Center
Mon 01:45:12 PM 41.4339 -81.8461 69° East 260 299 21,100  Level Cleveland Center
Mon 01:46:12 PM 41.4578 -81.7522 71° East 265 305 21,100  Level Cleveland Center
Mon 01:47:12 PM 41.4794 -81.6694 71° East 265 305 21,100  Level Cleveland Center
Mon 01:48:12 PM 41.5053 -81.5786 69° East 265 305 21,100  Level Cleveland Center
Mon 01:49:12 PM 41.5333 -81.4847 68° East 265 305 21,100  Level Cleveland Center
Mon 01:50:12 PM 41.5569 -81.3961 70° East 265 305 21,100  Level Cleveland Center
Mon 01:51:12 PM 41.5803 -81.3050 71° East 260 299 21,100  Level Cleveland Center
Mon 01:52:12 PM 41.6081 -81.2025 70° East 260 299 21,100 -50 Level Cleveland Center
Mon 01:53:12 PM 41.6336 -81.1136 69° East 260 299 21,000 -100 Descending Cleveland Center
Mon 01:54:12 PM 41.6736 -81.0364 55° Northeast 255 293 20,900  Descending Cleveland Center
Mon 01:55:12 PM 41.7092 -80.9558 59° Northeast 255 293 21,000 50 Climbing Cleveland Center
Mon 01:56:12 PM 41.7303 -80.8642 73° East 255 293 21,000  Level Cleveland Center
Mon 01:57:12 PM 41.7492 -80.7697 75° East 255 293 21,000  Level Cleveland Center
Mon 01:58:12 PM 41.7661 -80.6778 76° East 255 293 21,000  Level Cleveland Center
Mon 01:59:12 PM 41.7850 -80.5831 75° East 255 293 21,000  Level Cleveland Center
Mon 02:00:12 PM 41.8014 -80.4994 75° East 255 293 21,000  Level Cleveland Center
Mon 02:01:12 PM 41.8203 -80.4075 75° East 260 299 21,000  Level Cleveland Center
Mon 02:02:12 PM 41.8389 -80.3128 75° East 260 299 21,000  Level Cleveland Center
Mon 02:03:12 PM 41.8572 -80.2208 75° East 260 299 21,000 50 Level Cleveland Center
Mon 02:04:12 PM 41.8756 -80.1258 75° East 260 299 21,100  Climbing Cleveland Center
Mon 02:05:12 PM 41.8942 -80.0336 75° East 255 293 21,000 -50 Descending Cleveland Center
Mon 02:06:12 PM 41.9144 -79.9414 74° East 255 293 21,000  Level Cleveland Center
Mon 02:07:12 PM 41.9347 -79.8492 74° East 255 293 21,000  Level Cleveland Center
Mon 02:08:12 PM 41.9550 -79.7567 74° East 255 293 21,000  Level Cleveland Center
Mon 02:09:12 PM 41.9731 -79.6644 75° East 255 293 21,000  Level Cleveland Center
Mon 02:10:12 PM 41.9911 -79.5747 75° East 250 288 21,000  Level Cleveland Center
Mon 02:11:12 PM 42.0089 -79.4850 75° East 250 288 21,000  Level Cleveland Center
Mon 02:12:12 PM 42.0289 -79.3953 73° East 245 282 21,000  Level Cleveland Center
Mon 02:13:12 PM 42.0486 -79.2997 74° East 245 282 21,000  Level Cleveland Center
Mon 02:14:12 PM 42.0706 -79.2125 71° East 245 282 21,000  Level Cleveland Center
Mon 02:15:12 PM 42.0903 -79.1197 74° East 245 282 21,000  Level Cleveland Center
Mon 02:16:12 PM 42.1100 -79.0297 74° East 245 282 21,000  Level Cleveland Center
Mon 02:17:12 PM 42.1294 -78.9369 74° East 245 282 21,000  Level Cleveland Center
Mon 02:18:12 PM 42.1492 -78.8467 74° East 245 282 21,000  Level Cleveland Center
Mon 02:19:12 PM 42.1686 -78.7594 73° East 245 282 21,000  Level Cleveland Center
Mon 02:20:12 PM 42.1961 -78.6522 71° East 250 288 21,000  Level Cleveland Center
Mon 02:21:12 PM 42.2194 -78.5617 71° East 250 288 21,000  Level Cleveland Center
Mon 02:22:12 PM 42.2408 -78.4711 72° East 250 288 21,000  Level Cleveland Center
Mon 02:23:12 PM 42.2664 -78.3861 68° East 250 288 21,000  Level Cleveland Center
Mon 02:24:12 PM 42.3000 -78.3036 61° Northeast 250 288 21,000  Level Cleveland Center
Mon 02:25:12 PM 42.3339 -78.2208 61° Northeast 245 282 21,000  Level Cleveland Center
Mon 02:26:12 PM 42.3675 -78.1381 61° Northeast 245 282 21,000  Level Cleveland Center
Mon 02:27:12 PM 42.4033 -78.0525 60° Northeast 245 282 21,000 50 Level Cleveland Center
Mon 02:28:12 PM 42.4389 -77.9722 59° Northeast 245 282 21,100  Climbing Cleveland Center
Mon 02:29:12 PM 42.4744 -77.8864 61° Northeast 250 288 21,000  Descending Cleveland Center
Mon 02:30:12 PM 42.5144 -77.8056 56° Northeast 250 288 21,100  Climbing Cleveland Center
Mon 02:31:12 PM 42.5497 -77.7225 60° Northeast 255 293 21,000 -50 Descending Cleveland Center
Mon 02:32:12 PM 42.5872 -77.6361 59° Northeast 260 299 21,000 50 Level Cleveland Center
Mon 02:33:12 PM 42.6142 -77.5472 68° East 254 292 21,100  Climbing Cleveland Center
Mon 02:34:12 PM 42.6200 -77.4539 85° East 249 287 21,000  Descending Cleveland Center
Mon 02:35:12 PM 42.6175 -77.3639 92° East 254 292 21,100  Climbing Cleveland Center
Mon 02:36:53 PM 42.6178 -77.1950 90° East 253 291 21,000  Descending Boston Center
Mon 02:37:53 PM 42.6197 -77.0992 88° East 253 291 21,100  Climbing Boston Center
Mon 02:38:53 PM 42.6297 -77.0039 82° East 253 291 21,000  Descending Boston Center
Mon 02:39:53 PM 42.6397 -76.9117 82° East 253 291 21,100  Climbing Boston Center
Mon 02:40:53 PM 42.6539 -76.8136 79° East 253 291 21,000  Descending Boston Center
Mon 02:41:53 PM 42.6700 -76.7189 77° East 253 291 21,100 50 Climbing Boston Center
Mon 02:42:53 PM 42.6861 -76.6211 77° East 253 291 21,100  Level Boston Center
Mon 02:43:53 PM 42.7022 -76.5231 77° East 253 291 21,100  Level Boston Center
Mon 02:44:53 PM 42.7183 -76.4253 77° East 258 297 21,100  Level Boston Center
Mon 02:45:53 PM 42.7361 -76.3275 76° East 258 297 21,100 -50 Level Boston Center
Mon 02:46:53 PM 42.7497 -76.2350 79° East 258 297 21,000 -50 Descending Boston Center
Mon 02:47:53 PM 42.7592 -76.1394 82° East 258 297 21,000  Level Boston Center
Mon 02:48:53 PM 42.7622 -76.0406 88° East 258 297 21,000  Level Boston Center
Mon 02:49:53 PM 42.7614 -75.9414 91° East 258 297 21,000  Level Boston Center
Mon 02:51:05 PM 42.7567 -75.8194 93° East 258 297 21,000 45 Level Boston Center
Mon 02:52:05 PM 42.7556 -75.7175 91° East 258 297 21,100  Climbing Boston Center
Mon 02:53:05 PM 42.7542 -75.6158 91° East 263 303 21,000 -50 Descending Boston Center
Mon 02:54:05 PM 42.7528 -75.5167 91° East 268 308 21,000  Level Boston Center
Mon 02:55:05 PM 42.7511 -75.4178 91° East 268 308 21,000  Level Boston Center
Mon 02:56:05 PM 42.7517 -75.3186 90° East 263 303 21,000  Level Boston Center
Mon 02:57:05 PM 42.7478 -75.2194 93° East 263 303 21,000  Level Boston Center
Mon 02:58:17 PM 42.7425 -75.0919 93° East 263 303 21,000  Level Boston Center
Mon 02:59:17 PM 42.7344 -74.9928 96° East 263 303 21,000  Level Boston Center
Mon 03:00:17 PM 42.7281 -74.8964 95° East 258 297 21,000  Level Boston Center
Mon 03:01:17 PM 42.7197 -74.8000 97° East 258 297 21,000  Level Boston Center
Mon 03:02:17 PM 42.7072 -74.7061 100° East 258 297 21,000  Level Boston Center
Mon 03:03:17 PM 42.6925 -74.6067 101° East 258 297 21,000  Level Boston Center
Mon 03:04:17 PM 42.6775 -74.5131 102° East 258 297 21,000  Level Boston Center
Mon 03:05:17 PM 42.6625 -74.4164 102° East 258 297 21,000  Level Boston Center
Mon 03:06:17 PM 42.6494 -74.3231 101° East 258 297 21,000  Level Boston Center
Mon 03:07:17 PM 42.6447 -74.2239 94° East 258 297 21,000  Level Boston Center
Mon 03:08:17 PM 42.6481 -74.1450 87° East 258 297 21,000  Level Boston Center
Mon 03:09:17 PM 42.6583 -74.0211 84° East 253 291 21,000 45 Level Boston Center
Mon 03:10:29 PM 42.6594 -73.9281 89° East 258 297 21,100  Climbing Boston Center
Mon 03:11:29 PM 42.6631 -73.8094 88° East 252 290 21,000 -50 Descending Boston Center
Mon 03:12:29 PM 42.6619 -73.7275 91° East 252 290 21,000  Level Boston Center
Mon 03:13:29 PM 42.6611 -73.6175 91° East 252 290 21,000 -100 Level Boston Center
Mon 03:14:29 PM 42.6619 -73.5158 89° East 257 296 20,800 -550 Descending Boston Center
Mon 03:15:29 PM 42.6589 -73.4114 92° East 263 303 19,900 -900 Descending Boston Center
Mon 03:16:29 PM 42.6536 -73.3011 94° East 281 323 19,000 -450 Descending Boston Center
Mon 03:17:29 PM 42.6544 -73.1825 89° East 291 335 19,000 -50 Level Boston Center
Mon 03:18:29 PM 42.6569 -73.0894 88° East 285 328 18,900 -750 Descending Boston Center
Mon 03:19:29 PM 42.6617 -72.9822 87° East 280 322 17,500 -1,300 Descending Boston Center
Mon 03:20:29 PM 42.6561 -72.8578 93° East 286 329 16,300 -1,050 Descending Boston Center
Mon 03:21:29 PM 42.6333 -72.7506 106° East 292 336 15,400 -650 Descending Boston Center
Mon 03:22:29 PM 42.6044 -72.6544 112° Southeast 299 344 15,000 -700 Descending Boston Center
Mon 03:23:29 PM 42.5711 -72.5472 113° Southeast 294 338 14,000 -1,050 Descending Boston Center
Mon 03:24:29 PM 42.5339 -72.4428 116° Southeast 300 345 12,900 -1,050 Descending Boston Center
Mon 03:25:29 PM 42.4983 -72.3386 115° Southeast 300 345 11,900 -1,050 Descending Boston Center
Mon 03:26:29 PM 42.4897 -72.2206 96° East 300 345 10,800 -1,150 Descending Boston Center
Mon 03:27:29 PM 42.4917 -72.1164 89° East 305 351 9,600 -1,200 Descending Boston Center
Mon 03:28:29 PM 42.4911 -71.9953 90° East 299 344 8,400 -1,300 Descending Boston Center
Mon 03:29:29 PM 42.4950 -71.8994 87° East 289 333 7,000 -1,200 Descending Boston Center
Mon 03:30:29 PM 42.5028 -71.7867 85° East 282 325 6,000 -1,100 Descending Boston Center
Mon 03:31:29 PM 42.5147 -71.6964 80° East 269 310 4,800 -956 Descending Boston Center
Mon 03:32:22 PM 42.5167 -71.6167 88° East 227 261 4,200 -617 Descending KA90
Mon 03:33:16 PM 42.5167 -71.5333 90° East 207 238 3,700 -632 Descending KA90
Mon 03:34:16 PM 42.5000 -71.4667 109° East 182 209 3,000 -857 Descending KA90
Mon 03:35:22 PM 42.4833 -71.4000 109° East 158 182 1,900 -810 Descending KA90
Mon 03:36:22 PM 42.4833 -71.3667 90° East 123 142 1,300 -632 Descending KA90
Mon 03:37:16 PM 42.4833 -71.3167 90° East 119 137 700 1,508 Descending KA90
Mon 03:39:29 PM 42.4628 -71.2328 108° East 118 136 6,000 1,648 Climbing Boston Center
Mon 03:40:29 PM 42.4561 -71.1906 102° East 118 136 6,000  Level Boston Center
Mon 03:41:29 PM 42.4514 -71.1486 99° East 118 136 6,000  Level Boston Center
Mon 03:42:29 PM 42.4514 -71.1486 216° Southwest 118 136 6,000  Level Boston Center
Mon 03:45:00 PM 42.4667 -71.2833 279° West  Level FlightAware Approximate
Mon 03:52:00 PM 42.4699 -71.2890 279° West  Level Estimated
Mon 03:53:00 PM 42.4667 -71.2833 279° West  Level FlightAware Approximate

Login

Don't have an account? Register now (free) for customized features, flight alerts, and more!